Tiempo atmosférico en la estación meteorológica de Barcelona, Barcelona (25 m.)

Fecha
DESCASC
Temp. máxima en grados centígrados (hora)
DESCASC
Temp. mínima en grados centígrados (hora)
DESCASC
Temp. media en grados centígrados
DESCASC
Racha de viento máxima en m/sg (hora)
DESCASC
Velocidad máxima media en intervalos de 10 minutos(hora)
DESCASC
Precipitaciones diarias en mm
DESCASC
Precipitaciones de 00:00 a 06:00 en mm
DESCASC
Precipitaciones de 06:00 a 12:00 en mm
DESCASC
Precipitaciones de 12:00 a 18:00 en mm
DESCASC
Precipitaciones de 18:00 a 24:00 en mm
DESCASC
17-09-2017 23 (14:00) 13.9 (07:10) 18.4 12.78 (14:40) 8.89 (14:40) 0 0 0 0 0
16-09-2017 21.2 (14:30) 13.5 (06:40) 17.4 8.61 (17:10) 6.39 (16:50) 0 0 0 0 0
15-09-2017 20 (00:10) 14.4 (17:00) 17.2 6.94 (09:00) 3.61 (08:20) 8 4.7 0.3 2 1
14-09-2017 25.7 (16:40) 19.9 (00:00) 22.8 14.72 (17:30) 12.22 (17:30) 0.4 0 0 0 0.4
13-09-2017 26.1 (14:40) 19.4 (00:00) 22.8 13.61 (17:40) 8.89 (17:20) 0.9 0.9 0 0 0
12-09-2017 23.3 (00:40) 20.2 (00:00) 21.8 12.78 (03:00) 8.89 (03:00) 1.4 0 1 0 0.4
11-09-2017 25.5 (13:50) 18.8 (00:00) 22.1 10.28 (20:40) 8.61 (20:20) 0 0 0 0 0
10-09-2017 26.1 (17:10) 15.8 (00:00) 21 12.22 (18:50) 10 (18:50) 0 0 0 0 0
09-09-2017 24.8 (11:20) 17.4 (00:00) 21.1 16.39 (14:00) 13.89 (14:00) 10 0 0 9.5 0.5
08-09-2017 24.2 (14:20) 20.1 (00:00) 22.2 10.28 (10:10) 8.33 (09:50) 0 0 0 0 0
07-09-2017 24.3 (00:00) 20.2 (00:00) 22.3 12.78 (01:10) 10.83 (01:10) 5.3 5.3 0 0 0
06-09-2017 27.7 (12:50) 23 (00:00) 25.4 10.83 (15:40) 8.61 (15:40) 0.1 0 0 0 0.1
05-09-2017 27 (18:00) 20.8 (00:00) 23.9 10.28 (18:40) 7.78 (15:30) 0 0 0 0 0
04-09-2017 25.3 (15:20) 20.8 (00:00) 23 8.89 (13:10) 7.78 (14:20) 0.7 0.7 0 0 0
03-09-2017 26.2 (17:10) 19.7 (00:00) 23 8.61 (18:30) 7.5 (18:30) 0 0 0 0 0
02-09-2017 24 (15:30) 18.8 (00:00) 21.4 13.06 (02:40) 9.72 (02:40) 0 0 0 0 0
01-09-2017 24.7 (12:00) 20.1 (00:00) 22.4 9.17 (15:20) 6.67 (18:00) 0 0 0 0 0
31-08-2017 24.5 (00:50) 20.3 (00:00) 22.4 13.33 (19:10) 9.72 (19:10) 11.6 0 2.4 9.2 0
30-08-2017 28 (00:30) 23.1 (00:00) 25.6 13.61 (03:40) 7.78 (14:30) 0.1 0.1 0 0 0
29-08-2017 31.4 (14:30) 25.3 (00:00) 28.3 12.78 (15:40) 7.5 (15:50) 0 0 0 0 0
28-08-2017 28.9 (13:20) 24.6 (00:00) 26.8 6.11 (23:50) 5 (15:30) 0 0 0 0 0
27-08-2017 28.3 (14:20) 24.1 (00:00) 26.2 8.61 (20:40) 5.83 (11:30) 0 0 0 0 0
26-08-2017 28.8 (14:20) 23.6 (00:00) 26.2 5.83 (12:50) 4.72 (13:50) 0 0 0 0 0
25-08-2017 29.3 (16:30) 22.5 (00:00) 25.9 6.39 (19:50) 5.28 (19:50) 0 0 0 0 0
24-08-2017 28.7 (11:50) 24.3 (00:00) 26.5 9.44 (14:20) 7.78 (13:30) 0 0 0 0 0
23-08-2017 28.8 (17:40) 23.6 (00:00) 26.2 10 (17:40) 7.5 (15:40) 0 0 0 0 0
22-08-2017 27.4 (18:30) 22.7 (00:00) 25.1 10.83 (17:40) 8.33 (16:10) 0 0 0 0 0

Gráficas

Temp. máximas Temp. mínimas Temp. medias Precipitaciones Rachas de viento máximas Velocidades máximas media en intervalos de 10 minutos

Datos horarios

Fecha y hora oficial Temperatura (ºC) Velocidad del viento (km/h) Dirección del viento Racha (km/h) Dirección de racha Precipitación (mm) Presión (hPa) Tendencia (hPa) Humedad (%)
2017-09-20 23:00:00 20 6 Sudoeste 10 Sudoeste 0 -- -- 75
2017-09-20 22:00:00 20.1 7 Sudoeste 12 Sudoeste 0 -- -- 74
2017-09-20 21:00:00 20.4 6 Sudoeste 11 Sudoeste 0 -- -- 68
2017-09-20 20:00:00 20.7 7 Sudoeste 14 Sur 0 -- -- 57
2017-09-20 19:00:00 21.7 9 Sur 15 Sur 0 -- -- 53
2017-09-20 18:00:00 22.4 11 Sur 19 Sudeste 0 -- -- 52
2017-09-20 17:00:00 22.6 13 Este 21 Este 0 -- -- 62
2017-09-20 16:00:00 22.5 14 Este 22 Este 0 -- -- 64
2017-09-20 15:00:00 21.6 17 Este 26 Este 0 -- -- 67
2017-09-20 14:00:00 21.3 13 Este 23 Este 0 -- -- 65
2017-09-20 13:00:00 21 14 Este 24 Este 0 -- -- 66
2017-09-20 12:00:00 20.5 14 Este 23 Este 0 -- -- 65
2017-09-20 11:00:00 20.2 10 Este 17 Este 0 -- -- 68
2017-09-20 10:00:00 18.6 9 Norte 17 Norte 0 -- -- 69
2017-09-20 09:00:00 17 11 Norte 20 Norte 0 -- -- 71
2017-09-20 08:00:00 16.4 12 Norte 21 Norte 0 -- -- 74
2017-09-20 07:00:00 16.3 10 Norte 19 Norte 0 -- -- 74
2017-09-20 06:00:00 16.6 9 Norte 16 Norte 0 -- -- 77
2017-09-20 05:00:00 17.2 12 Norte 17 Noroeste 0 -- -- 79
2017-09-20 04:00:00 18.1 8 Norte 17 Norte 0 -- -- 77
2017-09-20 03:00:00 18.6 10 Norte 15 Norte 0 -- -- 75
2017-09-20 02:00:00 18.8 10 Norte 15 Norte 0 -- -- 74
2017-09-20 01:00:00 19 8 Norte 16 Norte 0 -- -- 72
2017-09-20 00:00:00 19.6 4 Norte 14 Sur 0 -- -- 69
2017-09-19 23:00:00 20.7 5 Sur 15 Sur 0 -- -- 61
2017-09-19 22:00:00 20.8 7 Sudeste 16 Sudeste 0 -- -- 63
2017-09-19 21:00:00 20.8 12 Sudeste 19 Sur 0 -- -- 66
2017-09-19 20:00:00 20.8 13 Sur 25 Sur 0 -- -- 65
2017-09-19 19:00:00 21.1 17 Sur 27 Sur 0 -- -- 61
2017-09-19 18:00:00 21.1 21 Sur 27 Sur 0 -- -- 65
2017-09-19 17:00:00 21.3 13 Sur 24 Sudeste 0 -- -- 68
2017-09-19 16:00:00 22.1 16 Sudeste 29 Sudeste 0 -- -- 66
2017-09-19 15:00:00 21.7 18 Sudeste 23 Sudeste 0 -- -- 67
2017-09-19 14:00:00 21 13 Sudeste 21 Sudeste 0 -- -- 68
2017-09-19 13:00:00 21.1 12 Sudeste 19 Sudeste 0 -- -- 68
2017-09-19 12:00:00 21.3 9 Sudeste 17 Este 0 -- -- 64
2017-09-19 11:00:00 20 8 Norte 17 Norte 0 -- -- 62
2017-09-19 10:00:00 18.9 9 Norte 19 Norte 0 -- -- 66
2017-09-19 09:00:00 17.4 11 Noroeste 20 Noroeste 0 -- -- 77
2017-09-19 08:00:00 17.7 12 Noroeste 20 Noroeste 0 -- -- 77
2017-09-19 07:00:00 18.2 8 Norte 17 Norte 0 -- -- 81
2017-09-19 06:00:00 18.1 7 Norte 15 Norte 0 -- -- 81
2017-09-19 05:00:00 17.9 9 Norte 14 Norte 0 -- -- 81
2017-09-19 04:00:00 18.6 2 Norte 11 Norte 0 -- -- 78
2017-09-19 03:00:00 20 7 Sur 18 Sur 0 -- -- 72
2017-09-19 02:00:00 19.9 9 Sur 18 Sur 0 -- -- 72
2017-09-19 01:00:00 19.7 9 Sur 22 Sudeste 0 -- -- 72
2017-09-19 00:00:00 19.8 12 Sudeste 24 Este 0 -- -- 73
2017-09-18 23:00:00 19.6 14 Sudeste 28 Este 0 -- -- 73
2017-09-18 22:00:00 19.4 23 Este 32 Este 0 -- -- 76
2017-09-18 21:00:00 19.2 17 Este 30 Este 0 -- -- 76
2017-09-18 20:00:00 19.1 21 Este 30 Este 0 -- -- 76
2017-09-18 19:00:00 19.1 23 Este 33 Este 0 -- -- 76
2017-09-18 18:00:00 20 21 Este 28 Sudeste 0 -- -- 72
2017-09-18 17:00:00 20.1 18 Este 30 Este 0 -- -- 70
2017-09-18 16:00:00 19.1 25 Este 35 Este 0 -- -- 75
2017-09-18 15:00:00 20 25 Este 30 Este 0 -- -- 72
2017-09-18 14:00:00 19.5 19 Este -- -- -- -- -- 73
2017-09-18 13:00:00 19.1 15 Este 27 Este 0 -- -- 75
2017-09-18 12:00:00 18.5 11 Nordeste 30 Este 0.5 -- -- 74
2017-09-18 11:00:00 19.5 22 Este 33 Este 0 -- -- 73
2017-09-18 10:00:00 18.9 21 Nordeste 33 Este 0 -- -- 74
2017-09-18 09:00:00 19.1 26 Este 38 Este 0 -- -- 77
2017-09-18 08:00:00 18.8 25 Este 35 Este 0 -- -- 78
2017-09-18 07:00:00 18.7 11 Nordeste 30 Este 0 -- -- 76
2017-09-18 06:00:00 19.3 24 Este 33 Este 0 -- -- 77
2017-09-18 05:00:00 18.9 19 Nordeste 33 Este 0 -- -- 77
2017-09-18 04:00:00 18.8 26 Este 33 Este 3.2 -- -- 76
2017-09-18 03:00:00 19.3 15 Nordeste 35 Este 0 -- -- 66
2017-09-18 02:00:00 19.9 12 Nordeste 31 Este 0 -- -- 69
2017-09-18 01:00:00 19.9 5 Norte 10 Norte 0 -- -- 69
2017-09-18 00:00:00 20.3 7 Norte 11 Norte 0 -- -- 67
2017-09-17 23:00:00 20.9 7 Sudoeste 17 Sudoeste 0 -- -- 69
2017-09-17 22:00:00 20.9 8 Oeste 26 Oeste 0 -- -- 66
2017-09-17 21:00:00 21.2 12 Oeste 26 Sudoeste 0 -- -- 65
2017-09-17 20:00:00 21.3 17 Sudoeste 29 Oeste 0 -- -- 64
2017-09-17 19:00:00 21.5 14 Sudoeste 30 Oeste 0 -- -- 60
2017-09-17 18:00:00 21.9 16 Sudoeste 40 Oeste 0 -- -- 57
2017-09-17 17:00:00 22.1 24 Sudoeste 42 Sudoeste 0 -- -- 56
2017-09-17 16:00:00 21.6 27 Sudoeste 44 Sudoeste 0 -- -- 54
2017-09-17 15:00:00 22.2 27 Sudoeste 46 Sudoeste 0 -- -- 52
2017-09-17 14:00:00 22.3 15 Sudoeste 37 Sudoeste 0 -- -- 46
2017-09-17 13:00:00 21.5 14 Sudoeste 30 Sudoeste 0 -- -- 47
2017-09-17 12:00:00 20.4 13 Sudoeste 20 Sudoeste 0 -- -- 45
2017-09-17 11:00:00 19.3 8 Sudoeste 27 Sudoeste 0 -- -- 47
2017-09-17 10:00:00 17.5 5 Oeste 24 Noroeste 0 -- -- 52
2017-09-17 09:00:00 15.1 10 Noroeste 28 Noroeste 0 -- -- 59
2017-09-17 08:00:00 15.3 15 Noroeste 32 Noroeste 0 -- -- 59
2017-09-17 07:00:00 14.6 12 Norte 25 Noroeste 0 -- -- 63
2017-09-17 06:00:00 14.7 8 Noroeste 23 Norte 0 -- -- 67
2017-09-17 05:00:00 14.5 12 Noroeste 21 Noroeste 0 -- -- 70
2017-09-17 04:00:00 15 9 Norte 14 Noroeste 0 -- -- 72
2017-09-17 03:00:00 15.8 9 Norte 14 Noroeste 0 -- -- 70
2017-09-17 02:00:00 15.8 9 Norte 16 Norte 0 -- -- 70
2017-09-17 01:00:00 16.2 6 Norte 12 Norte 0 -- -- 66
2017-09-17 00:00:00 17.6 5 Norte 14 Noroeste 0 -- -- 62
2017-09-16 23:00:00 19 7 Oeste 14 Oeste 0 -- -- 59
2017-09-16 22:00:00 19.3 8 Oeste 16 Oeste 0 -- -- 56
2017-09-16 21:00:00 19.8 9 Sudoeste 19 Oeste 0 -- -- 53
2017-09-16 20:00:00 20.1 10 Sudoeste 28 Sudoeste 0 -- -- 56
2017-09-16 19:00:00 20 17 Sudoeste 31 Sudoeste 0 -- -- 56
2017-09-16 18:00:00 19.6 18 Sudoeste 31 Sur 0 -- -- 60
2017-09-16 17:00:00 20.1 21 Sur 31 Sur 0 -- -- 56
2017-09-16 16:00:00 19.9 20 Sur 28 Sur 0 -- -- 58
2017-09-16 15:00:00 20 16 Sur 24 Sudoeste 0 -- -- 57
2017-09-16 14:00:00 20.4 6 Oeste 21 Sudoeste 0 -- -- 53
2017-09-16 13:00:00 19.7 9 Oeste 19 Oeste 0 -- -- 55
2017-09-16 12:00:00 19 4 Noroeste 18 Noroeste 0 -- -- 61
2017-09-16 11:00:00 17.4 8 Norte 22 Noroeste 0 -- -- 65
2017-09-16 10:00:00 16 10 Noroeste 22 Noroeste 0 -- -- 71
2017-09-16 09:00:00 15.1 11 Norte 21 Noroeste 0 -- -- 75
2017-09-16 08:00:00 13.7 10 Norte 18 Norte 0 -- -- 81
2017-09-16 07:00:00 13.7 8 Norte 17 Norte 0 -- -- 81
2017-09-16 06:00:00 14 7 Norte 17 Norte 0 -- -- 81
2017-09-16 05:00:00 14.1 6 Norte 14 Norte 0 -- -- 82
2017-09-16 04:00:00 14.4 6 Norte 11 Norte 0 -- -- 80
2017-09-16 03:00:00 14.7 3 Norte 17 Norte 0 -- -- 78
2017-09-16 02:00:00 15.1 9 Norte 14 Norte 0 -- -- 78
2017-09-16 01:00:00 15.3 3 Norte 10 Norte 0 -- -- 78
2017-09-16 00:00:00 15.4 6 Norte 16 Norte 0 -- -- 79
2017-09-15 23:00:00 15.1 8 Norte 15 Norte 0 -- -- 85
2017-09-15 22:00:00 15.3 5 Norte 10 Noroeste 0 -- -- 90
2017-09-15 21:00:00 15.3 6 Noroeste 14 Noroeste 0.2 -- -- 92
2017-09-15 20:00:00 15 5 Norte 8 Norte 0.4 -- -- 94
2017-09-15 19:00:00 14.8 4 Norte 15 Este 0.4 -- -- 95
2017-09-15 18:00:00 14.7 4 Nordeste 12 Nordeste 1.7 -- -- 94
2017-09-15 17:00:00 14.4 10 Nordeste 20 Nordeste 0.1 -- -- 94
2017-09-15 16:00:00 15.1 13 Nordeste 22 Nordeste 0 -- -- 91
2017-09-15 15:00:00 15.8 10 Nordeste 19 Nordeste 0 -- -- 87
2017-09-15 14:00:00 15.8 7 Nordeste 14 Nordeste 0.1 -- -- 89
2017-09-15 13:00:00 15.8 6 Nordeste 11 Nordeste 0.1 -- -- 90
2017-09-15 12:00:00 15.2 4 Nordeste 12 Nordeste 0.2 -- -- 93
2017-09-15 11:00:00 14.8 8 Nordeste 19 Norte 0.1 -- -- 94
2017-09-15 10:00:00 15.7 8 Norte 18 Norte 0 -- -- 86
2017-09-15 09:00:00 15.7 11 Norte 25 Norte 0 -- -- 86
2017-09-15 08:00:00 15.9 13 Noroeste 19 Norte 0 -- -- 86
2017-09-15 07:00:00 16.5 9 Noroeste 18 Noroeste 0 -- -- 84
2017-09-15 06:00:00 16.3 9 Noroeste 20 Norte 0 -- -- 84
2017-09-15 05:00:00 16.4 11 Norte 19 Norte 0 -- -- 86
2017-09-15 04:00:00 16.2 8 Norte 22 Noroeste 0 -- -- 89
2017-09-15 03:00:00 16.7 10 Norte 18 Norte 0 -- -- 89
2017-09-15 02:00:00 17.3 8 Norte 12 Noroeste 0.3 -- -- 90
2017-09-15 01:00:00 18.3 3 Este 17 Oeste 4.4 -- -- 86
2017-09-15 00:00:00 19.9 8 Nordeste 32 Este 0 -- -- 73
2017-09-14 23:00:00 20.9 27 Este 38 Este 0 -- -- 71
2017-09-14 22:00:00 21.9 31 Este 36 Este 0 -- -- 67
2017-09-14 21:00:00 22.4 19 Sudeste 31 Sudeste 0 -- -- 70
2017-09-14 20:00:00 22.2 26 Este 37 Sudeste 0 -- -- 71
2017-09-14 19:00:00 22.1 25 Este 45 Este 0.4 -- -- 77
2017-09-14 18:00:00 21.8 41 Este 53 Este 0 -- -- 77
2017-09-14 17:00:00 24.9 14 Sur 21 Sur 0 -- -- 83
2017-09-14 16:00:00 24.6 18 Sur 25 Sur 0 -- -- 83
2017-09-14 15:00:00 24.5 22 Sur 30 Sudoeste 0 -- -- 83
2017-09-14 14:00:00 24.6 26 Sur 33 Sur 0 -- -- 83
2017-09-14 13:00:00 24.7 26 Sur 34 Sur 0 -- -- 82
2017-09-14 12:00:00 24.8 16 Sudoeste 30 Sudoeste 0 -- -- 81
2017-09-14 11:00:00 24.2 13 Sudoeste 28 Sudoeste 0 -- -- 82
2017-09-14 10:00:00 23.8 14 Sudoeste 26 Sudoeste 0 -- -- 84
2017-09-14 09:00:00 23.3 6 Sudoeste 17 Oeste 0 -- -- 85
2017-09-14 08:00:00 22.9 8 Sudoeste 15 Oeste 0 -- -- 84
2017-09-14 07:00:00 22.5 4 Oeste 9 Sudoeste 0 -- -- 83
2017-09-14 06:00:00 21.9 4 Noroeste 10 Noroeste 0 -- -- 84
2017-09-14 05:00:00 22.7 7 Oeste 15 Oeste 0 -- -- 87
2017-09-14 04:00:00 22.4 0 Calma 6 Noroeste 0 -- -- 81
2017-09-14 03:00:00 22.4 4 Noroeste 13 Oeste 0 -- -- 81
2017-09-14 02:00:00 22.9 5 Oeste 13 Oeste 0 -- -- 83
2017-09-14 01:00:00 22.9 7 Oeste 15 Sudoeste 0 -- -- 84
2017-09-14 00:00:00 23 6 Oeste 15 Sudoeste 0 -- -- 82
2017-09-13 23:00:00 23.1 7 Oeste 32 Oeste 0 -- -- 83
2017-09-13 22:00:00 23.3 12 Sudoeste 31 Sudoeste 0 -- -- 82
2017-09-13 21:00:00 23.4 15 Sudoeste 35 Oeste 0 -- -- 79
2017-09-13 20:00:00 23.8 15 Sudoeste 41 Oeste 0 -- -- 74
2017-09-13 19:00:00 24.7 19 Sudoeste 47 Sudoeste 0 -- -- 66
2017-09-13 18:00:00 25 29 Sudoeste 49 Sudoeste 0 -- -- 66
2017-09-13 17:00:00 25.2 27 Sudoeste 45 Sudoeste 0 -- -- 64
2017-09-13 16:00:00 25 27 Sudoeste 42 Sudoeste 0 -- -- 61
2017-09-13 15:00:00 25.5 27 Sudoeste 46 Sudoeste 0 -- -- 58
2017-09-13 14:00:00 25.2 26 Sudoeste 40 Sudoeste 0 -- -- 55
2017-09-13 13:00:00 24 22 Sur 31 Sur 0 -- -- 61
2017-09-13 12:00:00 24.9 9 Sur 20 Sudeste 0 -- -- 54
2017-09-13 11:00:00 23.5 8 Sudeste 15 Sur 0 -- -- 72
2017-09-13 10:00:00 22.5 5 Noroeste 16 Noroeste 0 -- -- 75
2017-09-13 09:00:00 21.1 9 Noroeste 20 Noroeste 0 -- -- 80
2017-09-13 08:00:00 20.1 7 Noroeste 14 Noroeste 0 -- -- 87
2017-09-13 07:00:00 19.6 9 Noroeste 16 Norte 0 -- -- 89
2017-09-13 06:00:00 19.6 9 Norte 16 Norte 0 -- -- 90
2017-09-13 05:00:00 19.4 9 Norte 14 Norte 0 -- -- 89
2017-09-13 04:00:00 19.8 6 Norte 12 Norte 0 -- -- 88
2017-09-13 03:00:00 19.9 8 Norte 17 Norte 0.9 -- -- 88
2017-09-13 02:00:00 21 2 Norte 21 Sur 0 -- -- 82
2017-09-13 01:00:00 22 10 Sur 21 Sur 0 -- -- 79
2017-09-13 00:00:00 21.9 10 Sudoeste 21 Sur 0 -- -- 79
2017-09-12 23:00:00 21.6 13 Sur 21 Sur 0.1 -- -- 80
2017-09-12 22:00:00 21.7 15 Sur 28 Sudeste 0 -- -- 78
2017-09-12 21:00:00 21.5 17 Sur 25 Sur 0 -- -- 79
2017-09-12 20:00:00 21.3 19 Sur 26 Sur 0.3 -- -- 79
2017-09-12 19:00:00 21.6 18 Sur 29 Sur 0 -- -- 78
2017-09-12 18:00:00 21.5 20 Sur 28 Sur 0 -- -- 77
2017-09-12 17:00:00 22.4 16 Sur 26 Sur 0 -- -- 72
2017-09-12 16:00:00 22.3 14 Sur 21 Sur 0 -- -- 75
2017-09-12 15:00:00 21.2 10 Sudeste 23 Sudeste 0 -- -- 79
2017-09-12 14:00:00 21.4 15 Sudeste 29 Sudeste 0 -- -- 79
2017-09-12 13:00:00 21.1 17 Sudeste 26 Sudeste 0 -- -- 82
2017-09-12 12:00:00 20.6 15 Sudeste 23 Sudeste 0 -- -- 84
2017-09-12 11:00:00 20.3 15 Sudeste 23 Sudeste 0 -- -- 86
2017-09-12 10:00:00 20.4 7 Sur 14 Sur 0.3 -- -- 84
2017-09-12 09:00:00 21 8 Este 25 Sudeste 0.5 -- -- 82
2017-09-12 08:00:00 20.5 18 Sudeste 28 Sudeste 0.1 -- -- 84
2017-09-12 07:00:00 20.8 15 Sudeste 24 Sudeste 0.1 -- -- 84
2017-09-12 06:00:00 21.1 22 Sudeste 32 Sudeste 0 -- -- 83
2017-09-12 05:00:00 21.2 29 Sudeste 35 Sudeste 0 -- -- 85
2017-09-12 04:00:00 21.5 24 Sudeste 39 Sudeste 0 -- -- 88
2017-09-12 03:00:00 22.5 32 Sudeste 46 Sudeste 0 -- -- 81
2017-09-12 02:00:00 23.2 26 Este 36 Este 0 -- -- 83
2017-09-12 01:00:00 23.2 21 Sudeste 27 Este 0 -- -- 82
2017-09-12 00:00:00 22.9 23 Este 80 Este 0 -- -- 82
2017-09-11 23:00:00 22.7 29 Este 36 Este 0 -- -- 83
2017-09-11 22:00:00 22.6 25 Este 34 Este 0 -- -- 83
2017-09-11 21:00:00 22.4 28 Este 37 Este 0 -- -- 84
2017-09-11 20:00:00 22.6 30 Este 35 Este 0 -- -- 85
2017-09-11 19:00:00 23.3 22 Este 32 Este 0 -- -- 68
2017-09-11 18:00:00 23.5 26 Este 35 Este 0 -- -- 60
2017-09-11 17:00:00 23.5 28 Este 33 Este 0 -- -- 60
2017-09-11 16:00:00 23.5 26 Este 36 Este 0 -- -- 55
2017-09-11 15:00:00 24.1 28 Este 32 Este 0 -- -- 51
2017-09-11 14:00:00 25.1 21 Este 25 Este 0 -- -- 51
2017-09-11 13:00:00 24.4 16 Sudeste 22 Sudeste 0 -- -- 55
2017-09-11 12:00:00 23.5 15 Sudeste 19 Sudeste 0 -- -- 55
2017-09-11 11:00:00 22.3 12 Este 18 Este 0 -- -- 54
2017-09-11 10:00:00 21.3 7 Nordeste 16 Noroeste 0 -- -- 55
2017-09-11 09:00:00 21 3 Oeste 12 Sudoeste 0 -- -- 56
2017-09-11 08:00:00 19.1 6 Oeste 19 Noroeste 0 -- -- 58
2017-09-11 07:00:00 19.3 18 Noroeste 27 Noroeste 0 -- -- 55
2017-09-11 06:00:00 19.2 9 Oeste 17 Oeste 0 -- -- 55
2017-09-11 05:00:00 19.8 12 Noroeste 25 Oeste 0 -- -- 52
2017-09-11 04:00:00 20.6 15 Noroeste 24 Noroeste 0 -- -- 51
2017-09-11 03:00:00 20.1 8 Oeste 22 Oeste 0 -- -- 54
2017-09-11 02:00:00 20.6 14 Oeste 22 Oeste 0 -- -- 55
2017-09-11 01:00:00 20.2 6 Noroeste 13 Noroeste 0 -- -- 64
2017-09-11 00:00:00 20.5 7 Noroeste 16 Norte 0 -- -- 65
2017-09-10 23:00:00 21.3 6 Norte 21 Este 0 -- -- 62
2017-09-10 22:00:00 21.9 19 Este 29 Este 0 -- -- 62
2017-09-10 21:00:00 21.5 27 Este 37 Este 0 -- -- 66
2017-09-10 20:00:00 21.7 28 Este 42 Este 0 -- -- 65
2017-09-10 19:00:00 21.8 33 Este 44 Este 0 -- -- 63
2017-09-10 18:00:00 22.4 35 Nordeste 42 Nordeste 0 -- -- 62
2017-09-10 17:00:00 25.9 8 Sudeste 26 Sur 0 -- -- 37
2017-09-10 16:00:00 23.5 21 Sur 26 Sur 0 -- -- 49
2017-09-10 15:00:00 22 20 Sur 29 Sur 0 -- -- 52
2017-09-10 14:00:00 21.8 17 Sur 24 Sur 0 -- -- 47
2017-09-10 13:00:00 21.8 12 Sur 18 Sudeste 0 -- -- 46
2017-09-10 12:00:00 21.7 8 Sudeste 16 Sudeste 0 -- -- 46
2017-09-10 11:00:00 19.9 4 Norte 17 Noroeste 0 -- -- 50
2017-09-10 10:00:00 18.1 10 Norte 27 Noroeste 0 -- -- 55
2017-09-10 09:00:00 17 10 Noroeste 27 Noroeste 0 -- -- 60
2017-09-10 08:00:00 15.9 10 Noroeste 25 Norte 0 -- -- 63
2017-09-10 07:00:00 16.7 9 Noroeste 25 Noroeste 0 -- -- 63
2017-09-10 06:00:00 17.1 9 Noroeste 18 Noroeste 0 -- -- 65
2017-09-10 05:00:00 17.4 9 Oeste 14 Oeste 0 -- -- 64
2017-09-10 04:00:00 17.4 5 Sudoeste 13 Sudoeste 0 -- -- 80
2017-09-10 03:00:00 17.4 7 Norte 13 Norte 0 -- -- 79
2017-09-10 02:00:00 17.1 9 Norte 13 Norte 0 -- -- 80
2017-09-10 01:00:00 17.7 4 Norte 9 Norte 0 -- -- 77
2017-09-10 00:00:00 17.7 5 Noroeste 17 Norte 0 -- -- 76
2017-09-09 23:00:00 17.5 10 Norte 26 Este 0 -- -- 78
2017-09-09 22:00:00 18.5 17 Nordeste 39 Este 0 -- -- 70
2017-09-09 21:00:00 18.6 31 Este 45 Este 0 -- -- 88
2017-09-09 20:00:00 19.3 28 Este 37 Este 0 -- -- 89
2017-09-09 19:00:00 19.3 5 Este 11 Norte 0.5 -- -- 86
2017-09-09 18:00:00 19.5 3 Norte 10 Noroeste 0.2 -- -- 87
2017-09-09 17:00:00 18.9 0 Calma 24 Noroeste 0.1 -- -- 88
2017-09-09 16:00:00 18.9 11 Noroeste 26 Este 0.3 -- -- 92
2017-09-09 15:00:00 19.5 22 Este 55 Este 8.9 -- -- 94
2017-09-09 14:00:00 21.8 50 Este 59 Este 0 -- -- 77
2017-09-09 13:00:00 22.6 46 Este 51 Este 0 -- -- 81
2017-09-09 12:00:00 23.4 31 Este 38 Este 0 -- -- 81
2017-09-09 11:00:00 23.8 8 Norte 14 Norte 0 -- -- 76
2017-09-09 10:00:00 22.5 8 Norte 15 Norte 0 -- -- 80
2017-09-09 09:00:00 21.9 7 Norte 15 Noroeste 0 -- -- 80
2017-09-09 08:00:00 21.5 8 Norte 13 Norte 0 -- -- 79
2017-09-09 07:00:00 21.3 7 Norte 11 Noroeste 0 -- -- 79
2017-09-09 06:00:00 21.2 7 Norte 10 Norte 0 -- -- 79
2017-09-09 05:00:00 21 6 Norte 10 Norte 0 -- -- 79
2017-09-09 04:00:00 21.2 7 Norte 14 Norte 0 -- -- 79
2017-09-09 03:00:00 20.9 6 Norte 14 Norte 0 -- -- 79
2017-09-09 02:00:00 21 7 Norte 12 Norte 0 -- -- 78
2017-09-09 01:00:00 21.4 6 Noroeste 9 Norte 0 -- -- 71
2017-09-09 00:00:00 22.3 5 Noroeste 11 Oeste 0 -- -- 65
2017-09-08 23:00:00 22.3 8 Oeste 13 Oeste 0 -- -- 66
2017-09-08 22:00:00 22.4 6 Sudoeste 13 Sudoeste 0 -- -- 65
2017-09-08 21:00:00 22.6 7 Sudoeste 15 Sudoeste 0 -- -- 65
2017-09-08 20:00:00 23.1 9 Sur 15 Sur 0 -- -- 61
2017-09-08 19:00:00 23.5 16 Sudeste 30 Sudeste 0 -- -- 73
2017-09-08 18:00:00 23.2 21 Sudeste 32 Sudeste 0 -- -- 76
2017-09-08 17:00:00 23.1 22 Sudeste 32 Sudeste 0 -- -- 75
2017-09-08 16:00:00 23.7 23 Sudeste 32 Sudeste 0 -- -- 72
2017-09-08 15:00:00 23.8 23 Sudeste 30 Sudeste 0 -- -- 71
2017-09-08 14:00:00 23.6 23 Sudeste 32 Sudeste 0 -- -- 71
2017-09-08 13:00:00 23.5 22 Sudeste 32 Sudeste 0 -- -- 72
2017-09-08 12:00:00 23.4 21 Sudeste 34 Sudeste 0 -- -- 72
2017-09-08 11:00:00 23 25 Sudeste 37 Sudeste 0 -- -- 74
2017-09-08 10:00:00 22.6 28 Sudeste 37 Sudeste 0 -- -- 77
2017-09-08 09:00:00 20.8 10 Nordeste 31 Este 0 -- -- 80
2017-09-08 08:00:00 21.8 25 Sudeste 33 Sudeste 0 -- -- 82
2017-09-08 07:00:00 20.2 10 Noroeste 17 Noroeste 0 -- -- 84
2017-09-08 06:00:00 20.2 10 Noroeste 16 Noroeste 0 -- -- 86
2017-09-08 05:00:00 20.7 8 Noroeste 15 Noroeste 0 -- -- 87
2017-09-08 04:00:00 21.2 8 Noroeste 15 Noroeste 0 -- -- 86
2017-09-08 03:00:00 21.5 7 Norte 12 Norte 0 -- -- 78
2017-09-08 02:00:00 22.2 4 Norte 8 Oeste 0 -- -- 78
2017-09-08 01:00:00 22.9 5 Oeste 10 Noroeste 0 -- -- 74
2017-09-08 00:00:00 23.2 5 Oeste 25 Sur 0 -- -- 79
2017-09-07 23:00:00 23.4 11 Sudoeste 23 Sudoeste 0 -- -- 81
2017-09-07 22:00:00 23.2 16 Sudoeste 26 Sur 0 -- -- 82
2017-09-07 21:00:00 22.8 17 Sur 27 Sur 0 -- -- 82
2017-09-07 20:00:00 23.1 18 Sur 29 Sur 0 -- -- 82
2017-09-07 19:00:00 23.1 22 Sur 30 Sur 0 -- -- 81
2017-09-07 18:00:00 23 20 Sur 31 Sur 0 -- -- 77
2017-09-07 17:00:00 23.2 23 Sur 32 Sur 0 -- -- 74
2017-09-07 16:00:00 23.6 18 Sur 24 Sur 0 -- -- 70
2017-09-07 15:00:00 23.4 14 Sur 21 Sur 0 -- -- 69
2017-09-07 14:00:00 23.7 10 Sur 17 Sur 0 -- -- 67
2017-09-07 13:00:00 22.9 9 Sur 19 Sur 0 -- -- 68
2017-09-07 12:00:00 22.7 8 Sudoeste 14 Sudoeste 0 -- -- 59
2017-09-07 11:00:00 22.1 6 Norte 26 Noroeste 0 -- -- 53
2017-09-07 10:00:00 20.9 10 Noroeste 24 Noroeste 0 -- -- 56
2017-09-07 09:00:00 20.2 9 Este 17 Este 0 -- -- 58
2017-09-07 08:00:00 20.9 6 Este 16 Este 0 -- -- 61
2017-09-07 07:00:00 21.2 6 Sudeste 11 Sudeste 0 -- -- 75
2017-09-07 06:00:00 21.6 5 Sudeste 17 Este 0 -- -- 90
2017-09-07 05:00:00 21.6 6 Sudeste 13 Sudeste 0 -- -- 89
2017-09-07 04:00:00 21.5 6 Sudeste 15 Sudeste 0 -- -- 91
2017-09-07 03:00:00 22 13 Sudeste 24 Sudeste 0.6 -- -- 90
2017-09-07 02:00:00 21.8 14 Sudeste 46 Sudeste 3.8 -- -- 94
2017-09-07 01:00:00 22.3 33 Este 39 Este 0.9 -- -- 93
2017-09-07 00:00:00 24.3 6 Oeste 21 Sudoeste 0 -- -- 82
2017-09-06 23:00:00 24.5 15 Sudoeste 26 Sudoeste 0 -- -- 82
2017-09-06 22:00:00 24.5 19 Sur 28 Sudoeste 0 -- -- 83
2017-09-06 21:00:00 24.6 19 Sur 31 Sur 0.1 -- -- 81
2017-09-06 20:00:00 24.5 23 Sur 35 Sur 0 -- -- 82
2017-09-06 19:00:00 24.5 26 Sur 35 Sur 0 -- -- 82
2017-09-06 18:00:00 24.8 24 Sur 33 Sur 0 -- -- 82
2017-09-06 17:00:00 25 26 Sur 34 Sur 0 -- -- 79
2017-09-06 16:00:00 25.4 24 Sur 39 Sur 0 -- -- 76
2017-09-06 15:00:00 25.4 24 Sur 34 Sur 0 -- -- 76
2017-09-06 14:00:00 26.2 14 Sur 19 Sur 0 -- -- 73
2017-09-06 13:00:00 26.2 12 Sur 17 Sudeste 0 -- -- 73
2017-09-06 12:00:00 26.4 12 Sudeste 17 Sudeste 0 -- -- 72
2017-09-06 11:00:00 26 6 Este 11 Este 0 -- -- 73
2017-09-06 10:00:00 26 6 Este 9 Este 0 -- -- 73
2017-09-06 09:00:00 23.9 3 Norte 11 Norte 0 -- -- 82
2017-09-06 08:00:00 23.2 6 Norte 11 Norte 0 -- -- 84
2017-09-06 07:00:00 23.3 5 Norte 8 Noroeste 0 -- -- 84
2017-09-06 06:00:00 23.2 6 Norte 10 Norte 0 -- -- 84
2017-09-06 05:00:00 23.5 3 Norte 9 Norte 0 -- -- 83
2017-09-06 04:00:00 23.7 4 Norte 10 Norte 0 -- -- 81
2017-09-06 03:00:00 24 3 Noroeste 12 Sudoeste 0 -- -- 78
2017-09-06 02:00:00 24.4 4 Sudoeste 11 Oeste 0 -- -- 78
2017-09-06 01:00:00 24.7 9 Oeste 14 Sudoeste 0 -- -- 77
2017-09-06 00:00:00 24.7 8 Oeste 15 Sudoeste 0 -- -- 79
2017-09-05 23:00:00 24.9 7 Oeste 17 Sudoeste 0 -- -- 78
2017-09-05 22:00:00 24.9 8 Sudoeste 32 Sudoeste 0 -- -- 79
2017-09-05 21:00:00 25 17 Sudoeste 28 Sudoeste 0 -- -- 78
2017-09-05 20:00:00 25.5 17 Sudoeste 35 Sudoeste 0 -- -- 73
2017-09-05 19:00:00 26.2 19 Sudoeste 37 Sudoeste 0 -- -- 71
2017-09-05 18:00:00 26.5 22 Sudoeste 36 Sudoeste 0 -- -- 69
2017-09-05 17:00:00 25.9 26 Sur 34 Sur 0 -- -- 75
2017-09-05 16:00:00 25.7 28 Sur 34 Sur 0 -- -- 77
2017-09-05 15:00:00 25.7 26 Sur 34 Sur 0 -- -- 77
2017-09-05 14:00:00 25.5 26 Sur 32 Sur 0 -- -- 77
2017-09-05 13:00:00 25.2 24 Sur 28 Sur 0 -- -- 77
2017-09-05 12:00:00 25.6 17 Sur 22 Sur 0 -- -- 72
2017-09-05 11:00:00 26.2 8 Sudeste 12 Este 0 -- -- 63
2017-09-05 10:00:00 25.1 5 Nordeste 12 Este 0 -- -- 64
2017-09-05 09:00:00 23.9 3 Norte 9 Noroeste 0 -- -- 69
2017-09-05 08:00:00 21.8 6 Norte 10 Norte 0 -- -- 77
2017-09-05 07:00:00 21 6 Noroeste 13 Norte 0 -- -- 79
2017-09-05 06:00:00 21 7 Norte 11 Noroeste 0 -- -- 79
2017-09-05 05:00:00 21.5 5 Noroeste 9 Norte 0 -- -- 78
2017-09-05 04:00:00 21.8 6 Norte 8 Norte 0 -- -- 77
2017-09-05 03:00:00 22.2 5 Noroeste 13 Norte 0 -- -- 76
2017-09-05 02:00:00 22.3 6 Noroeste 10 Norte 0 -- -- 76
2017-09-05 01:00:00 22.8 5 Norte 9 Norte 0 -- -- 75
2017-09-05 00:00:00 23.3 4 Norte 7 Norte 0 -- -- 76
2017-09-04 23:00:00 23.5 4 Nordeste 12 Este 0 -- -- 74
2017-09-04 22:00:00 23.7 8 Este 16 Este 0 -- -- 73
2017-09-04 21:00:00 23.8 11 Este 20 Este 0 -- -- 71
2017-09-04 20:00:00 24.1 14 Este 23 Este 0 -- -- 69
2017-09-04 19:00:00 24.7 17 Este 22 Este 0 -- -- 68
2017-09-04 18:00:00 25 17 Este 28 Este 0 -- -- 69
2017-09-04 17:00:00 25 23 Este 29 Este 0 -- -- 71
2017-09-04 16:00:00 24.7 21 Este 30 Este 0 -- -- 71
2017-09-04 15:00:00 25 25 Este 32 Este 0 -- -- 70
2017-09-04 14:00:00 24.8 26 Este 32 Este 0 -- -- 68
2017-09-04 13:00:00 24.7 26 Este 31 Este 0 -- -- 70
2017-09-04 12:00:00 24.2 24 Este 30 Este 0 -- -- 69
2017-09-04 11:00:00 24.3 11 Este 19 Este 0 -- -- 75
2017-09-04 10:00:00 23.1 8 Nordeste 15 Nordeste 0 -- -- 77
2017-09-04 09:00:00 21.8 7 Nordeste 12 Nordeste 0 -- -- 86
2017-09-04 08:00:00 21.3 7 Nordeste 18 Norte 0 -- -- 85
2017-09-04 07:00:00 20.9 10 Norte 17 Norte 0 -- -- 87
2017-09-04 06:00:00 20.9 6 Norte 11 Noroeste 0 -- -- 90
2017-09-04 05:00:00 21.2 4 Noroeste 9 Noroeste 0.1 -- -- 90
2017-09-04 04:00:00 21.4 0 Calma 12 Norte 0.3 -- -- 87
2017-09-04 03:00:00 21.4 9 Norte 13 Norte 0.3 -- -- 83
2017-09-04 02:00:00 22.2 6 Noroeste 15 Noroeste 0 -- -- 78
2017-09-04 01:00:00 22.4 4 Noroeste 10 Noroeste 0 -- -- 79
2017-09-04 00:00:00 22.3 5 Norte 12 Norte 0 -- -- 79
2017-09-03 23:00:00 22.5 6 Nordeste 19 Este 0 -- -- 80
2017-09-03 22:00:00 22.9 14 Este 19 Este 0 -- -- 80
2017-09-03 21:00:00 23 15 Este 27 Este 0 -- -- 79
2017-09-03 20:00:00 23 21 Este 30 Este 0 -- -- 78
2017-09-03 19:00:00 23.6 23 Este 31 Sudeste 0 -- -- 77
2017-09-03 18:00:00 24.3 16 Sudeste 23 Sudeste 0 -- -- 73
2017-09-03 17:00:00 25.4 13 Sur 18 Sur 0 -- -- 66
2017-09-03 16:00:00 25.3 12 Sur 18 Sudeste 0 -- -- 62
2017-09-03 15:00:00 24.9 12 Sudeste 18 Sudeste 0 -- -- 60
2017-09-03 14:00:00 25 8 Sudeste 19 Este 0 -- -- 58
2017-09-03 13:00:00 24.2 10 Este 18 Este 0 -- -- 60
2017-09-03 12:00:00 23.7 12 Este 19 Este 0 -- -- 64
2017-09-03 11:00:00 23.1 7 Nordeste 17 Nordeste 0 -- -- 64
2017-09-03 10:00:00 21.6 7 Norte 16 Norte 0 -- -- 69
2017-09-03 09:00:00 21 7 Norte 17 Noroeste 0 -- -- 70
2017-09-03 08:00:00 20 8 Norte 14 Noroeste 0 -- -- 74
2017-09-03 07:00:00 20 9 Noroeste -- -- -- -- -- 73
2017-09-03 06:00:00 20.2 8 Noroeste 16 Noroeste 0 -- -- 71
2017-09-03 05:00:00 20.4 8 Noroeste 13 Noroeste 0 -- -- 70
2017-09-03 04:00:00 21 8 Noroeste 13 Noroeste 0 -- -- 69
2017-09-03 03:00:00 22 8 Oeste 21 Sur 0 -- -- 66
2017-09-03 02:00:00 23.4 17 Sur 24 Sur 0 -- -- 64
2017-09-03 01:00:00 23.1 15 Sur 22 Sur 0 -- -- 62
2017-09-03 00:00:00 23.2 13 Sur 23 Sur 0 -- -- 61
2017-09-02 23:00:00 23 13 Sur 23 Sur 0 -- -- 62
2017-09-02 22:00:00 23.2 14 Sudeste 24 Sur 0 -- -- 62
2017-09-02 21:00:00 23.1 15 Sudeste 32 Sudeste 0 -- -- 59
2017-09-02 20:00:00 23.7 17 Sudeste 28 Sur 0 -- -- 56
2017-09-02 19:00:00 23.9 21 Sur 34 Sur 0 -- -- 56
2017-09-02 18:00:00 23.5 26 Sur 36 Sur 0 -- -- 58
2017-09-02 17:00:00 23.6 22 Sur 39 Sur 0 -- -- 56
2017-09-02 16:00:00 23.4 26 Sur 37 Sudoeste 0 -- -- 52
2017-09-02 15:00:00 23.6 24 Sur 34 Sur 0 -- -- 47
2017-09-02 14:00:00 22.9 24 Sur 32 Sur 0 -- -- 60
2017-09-02 13:00:00 22.4 22 Sur 29 Sur 0 -- -- 58
2017-09-02 12:00:00 23.3 13 Sur 27 Sudoeste 0 -- -- 56
2017-09-02 11:00:00 23.6 6 Este 15 Este 0 -- -- 56
2017-09-02 10:00:00 22.1 6 Norte 13 Norte 0 -- -- 56
2017-09-02 09:00:00 20.3 6 Norte 18 Norte 0 -- -- 61
2017-09-02 08:00:00 19.1 9 Norte 23 Norte 0 -- -- 63
2017-09-02 07:00:00 18.9 11 Noroeste 26 Noroeste 0 -- -- 66
2017-09-02 06:00:00 19.1 12 Noroeste 18 Noroeste 0 -- -- 64
2017-09-02 05:00:00 19.9 6 Norte 16 Noroeste 0 -- -- 61
2017-09-02 04:00:00 21.2 8 Oeste 34 Sudoeste 0 -- -- 55
2017-09-02 03:00:00 22.9 17 Sur 47 Sudeste 0 -- -- 68
2017-09-02 02:00:00 22.9 21 Sur 33 Sur 0 -- -- 69
2017-09-02 01:00:00 22.6 18 Sur 28 Sur 0 -- -- 69
2017-09-02 00:00:00 22.6 19 Sur 31 Sur 0 -- -- 69
2017-09-01 23:00:00 22.6 17 Sur 24 Sur 0 -- -- 71
2017-09-01 22:00:00 22.6 16 Sudeste 26 Sur 0 -- -- 71
2017-09-01 21:00:00 22.9 15 Sur 25 Sudeste 0 -- -- 70
2017-09-01 20:00:00 23.1 15 Sur 26 Sur 0 -- -- 71
2017-09-01 19:00:00 23.2 23 Sur 32 Sur 0 -- -- 71
2017-09-01 18:00:00 22.9 24 Sur 32 Sur 0 -- -- 71
2017-09-01 17:00:00 23.5 17 Sur 27 Sur 0 -- -- 69
2017-09-01 16:00:00 23.6 22 Sur 33 Sur 0 -- -- 72
2017-09-01 15:00:00 23.3 16 Sur 25 Sur 0 -- -- 67
2017-09-01 14:00:00 23.3 13 Sur 19 Sur 0 -- -- 65
2017-09-01 13:00:00 23.8 9 Sur 17 Sur 0 -- -- 60
2017-09-01 12:00:00 23.9 5 Sur 13 Sudeste 0 -- -- 58
2017-09-01 11:00:00 22.5 4 Norte 15 Noroeste 0 -- -- 60
2017-09-01 10:00:00 21.4 9 Norte 16 Noroeste 0 -- -- 66
2017-09-01 09:00:00 21.3 6 Norte 11 Norte 0 -- -- 75
2017-09-01 08:00:00 20.5 8 Norte 13 Noroeste 0 -- -- 78
2017-09-01 07:00:00 20.2 7 Norte 12 Norte 0 -- -- 79
2017-09-01 06:00:00 20.3 7 Noroeste 14 Noroeste 0 -- -- 79
2017-09-01 05:00:00 20.2 7 Norte 12 Norte 0 -- -- 79
2017-09-01 04:00:00 20.7 7 Norte 12 Norte 0 -- -- 75
2017-09-01 03:00:00 21.1 4 Noroeste 10 Noroeste 0 -- -- 74
2017-09-01 02:00:00 20.9 7 Noroeste 13 Norte 0 -- -- 74
2017-09-01 01:00:00 21.3 7 Nordeste 13 Este 0 -- -- 73
2017-09-01 00:00:00 21.7 4 Este 12 Este 0 -- -- 74
2017-08-31 23:00:00 22 8 Este 23 Este 0 -- -- 74
2017-08-31 22:00:00 22.1 20 Este 32 Este 0 -- -- 77
2017-08-31 21:00:00 22.1 24 Este 37 Este 0 -- -- 78
2017-08-31 20:00:00 22 29 Este 48 Este 0 -- -- 78
2017-08-31 19:00:00 21.8 35 Este 45 Este 0 -- -- 81
2017-08-31 18:00:00 21.9 29 Este 35 Este 0 -- -- 81
2017-08-31 17:00:00 22.2 26 Este 35 Este 0 -- -- 80
2017-08-31 16:00:00 22.4 19 Este 26 Este 0 -- -- 79
2017-08-31 15:00:00 22.4 21 Este 26 Este 0.6 -- -- 78
2017-08-31 14:00:00 21.9 21 Este 28 Este 0 -- -- 80
2017-08-31 13:00:00 21.3 17 Nordeste 26 Norte 8.6 -- -- 86
2017-08-31 12:00:00 22.1 8 Este 15 Nordeste 1.5 -- -- 87
2017-08-31 11:00:00 22.9 8 Nordeste 19 Nordeste 0 -- -- 83
2017-08-31 10:00:00 22.3 9 Nordeste 17 Nordeste 0 -- -- 86
2017-08-31 09:00:00 21.8 10 Nordeste 19 Este 0.3 -- -- 90
2017-08-31 08:00:00 22 6 Norte 17 Norte 0.5 -- -- 91
2017-08-31 07:00:00 22.6 10 Norte 21 Norte 0.1 -- -- 83
2017-08-31 06:00:00 23.4 6 Nordeste 11 Nordeste 0 -- -- 80
2017-08-31 05:00:00 23.7 6 Nordeste 9 Oeste 0 -- -- 77
2017-08-31 04:00:00 24.1 3 Oeste 9 Oeste 0 -- -- 76
2017-08-31 03:00:00 23.9 4 Sur 10 Sur 0 -- -- 76
2017-08-31 02:00:00 24.3 5 Oeste 16 Sudoeste 0 -- -- 73
2017-08-31 01:00:00 24.4 9 Oeste 17 Oeste 0 -- -- 73
2017-08-31 00:00:00 24.3 5 Sudoeste 16 Oeste 0 -- -- 73
2017-08-30 23:00:00 24.5 7 Oeste 21 Sudoeste 0 -- -- 70
2017-08-30 22:00:00 24.6 9 Sudoeste 27 Oeste 0 -- -- 73
2017-08-30 21:00:00 24.8 6 Sudoeste 25 Sudoeste 0 -- -- 73
2017-08-30 20:00:00 24.9 13 Sudoeste 26 Oeste 0 -- -- 71
2017-08-30 19:00:00 25.2 15 Sudoeste 33 Sudoeste 0 -- -- 69
2017-08-30 18:00:00 25.4 17 Sudoeste 33 Sur 0 -- -- 68
2017-08-30 17:00:00 25.1 25 Sur 38 Sudoeste 0 -- -- 69
2017-08-30 16:00:00 26 26 Sudoeste 41 Sudoeste 0 -- -- 61
2017-08-30 15:00:00 26.1 19 Sudoeste 35 Sudoeste 0 -- -- 63
2017-08-30 14:00:00 26 23 Sur 32 Sur 0 -- -- 58
2017-08-30 13:00:00 26.8 18 Sudoeste 31 Sudoeste 0 -- -- 55
2017-08-30 12:00:00 26.3 12 Sudoeste 24 Oeste 0 -- -- 51
2017-08-30 11:00:00 26.2 9 Oeste 23 Oeste 0 -- -- 50
2017-08-30 10:00:00 25.6 4 Oeste 18 Oeste 0 -- -- 55
2017-08-30 09:00:00 24.5 10 Oeste 30 Oeste 0 -- -- 60
2017-08-30 08:00:00 24.2 8 Oeste 22 Oeste 0 -- -- 60
2017-08-30 07:00:00 23.6 12 Oeste 30 Sudoeste 0 -- -- 64
2017-08-30 06:00:00 23.1 13 Oeste 32 Oeste 0.1 -- -- 69
2017-08-30 05:00:00 24.2 19 Oeste 44 Oeste 0 -- -- 62
2017-08-30 04:00:00 25.4 23 Oeste 49 Oeste 0 -- -- 55
2017-08-30 03:00:00 26.7 14 Sudoeste 25 Sudoeste 0 -- -- 47
2017-08-30 02:00:00 27.4 11 Noroeste 23 Noroeste 0 -- -- 46
2017-08-30 01:00:00 27.3 13 Noroeste 28 Noroeste 0 -- -- 47
2017-08-30 00:00:00 27.9 6 Noroeste 24 Oeste 0 -- -- 46
2017-08-29 23:00:00 27.1 12 Sudoeste 19 Sudoeste 0 -- -- 55
2017-08-29 22:00:00 26.5 12 Oeste 24 Oeste 0 -- -- 63
2017-08-29 21:00:00 27.4 9 Sudoeste 15 Sudoeste 0 -- -- 56
2017-08-29 20:00:00 28 9 Oeste 19 Sudoeste 0 -- -- 53
2017-08-29 19:00:00 27.8 10 Oeste 40 Oeste 0 -- -- 55
2017-08-29 18:00:00 28.3 22 Sudoeste 40 Sudoeste 0 -- -- 59
2017-08-29 17:00:00 29.3 14 Sudoeste 32 Sudoeste 0 -- -- 60
2017-08-29 16:00:00 28.1 23 Sudoeste 46 Sudoeste 0 -- -- 67
2017-08-29 15:00:00 27.7 19 Sur 30 Sur 0 -- -- 72
2017-08-29 14:00:00 29.2 22 Sur 28 Sur 0 -- -- 63
2017-08-29 13:00:00 28.5 15 Sur 33 Sur 0 -- -- 65
2017-08-29 12:00:00 26.9 21 Sur 27 Sur 0 -- -- 76
2017-08-29 11:00:00 27.9 10 Sur 17 Sur 0 -- -- 67
2017-08-29 10:00:00 28.6 9 Sudoeste 16 Sudoeste 0 -- -- 56
2017-08-29 09:00:00 26.6 8 Sudoeste 15 Sudoeste 0 -- -- 64
2017-08-29 08:00:00 25.9 4 Sudoeste 14 Sudoeste 0 -- -- 69
2017-08-29 07:00:00 25.5 6 Sudoeste 13 Sudoeste 0 -- -- 70
2017-08-29 06:00:00 25.7 7 Sudoeste 21 Sudoeste 0 -- -- 70
2017-08-29 05:00:00 25.7 7 Sudoeste 17 Sudoeste 0 -- -- 75
2017-08-29 04:00:00 25.6 8 Sudoeste 40 Oeste 0 -- -- 84
2017-08-29 03:00:00 25.8 8 Sudoeste 15 Sudoeste 0 -- -- 79
2017-08-29 02:00:00 25.9 8 Sudoeste 18 Sudoeste 0 -- -- 83
2017-08-29 01:00:00 26.2 10 Sudoeste 20 Sudoeste 0 -- -- 82
2017-08-29 00:00:00 26.3 11 Sudoeste 22 Sudoeste 0 -- -- 83
2017-08-28 23:00:00 26.1 3 Sur 15 Sur 0 -- -- 87
2017-08-28 22:00:00 25.7 13 Sur 17 Sur 0 -- -- 89
2017-08-28 21:00:00 25.8 6 Sur 10 Sur 0 -- -- 86
2017-08-28 20:00:00 26.3 6 Sur 13 Sur 0 -- -- 83
2017-08-28 19:00:00 26.5 7 Sur 14 Sur 0 -- -- 81
2017-08-28 18:00:00 26.6 10 Sur 20 Sur 0 -- -- 80
2017-08-28 17:00:00 27.3 14 Sur 20 Sur 0 -- -- 78
2017-08-28 16:00:00 28.2 15 Sur 21 Sudoeste 0 -- -- 72
2017-08-28 15:00:00 28 17 Sudoeste 20 Sudoeste 0 -- -- 73
2017-08-28 14:00:00 28.3 13 Sudoeste 20 Sudoeste 0 -- -- 71
2017-08-28 13:00:00 28.4 12 Sudoeste 16 Sudoeste 0 -- -- 69
2017-08-28 12:00:00 27.3 8 Sudoeste 14 Sudoeste 0 -- -- 73
2017-08-28 11:00:00 27.1 10 Sudoeste 12 Sudoeste 0 -- -- 73
2017-08-28 10:00:00 26.4 4 Oeste 10 Oeste 0 -- -- 76
2017-08-28 09:00:00 25.4 6 Oeste 11 Oeste 0 -- -- 80
2017-08-28 08:00:00 25 2 Oeste 6 Oeste 0 -- -- 87
2017-08-28 07:00:00 24.8 2 Oeste 8 Oeste 0 -- -- 89
2017-08-28 06:00:00 24.7 5 Oeste 10 Oeste 0 -- -- 90
2017-08-28 05:00:00 24.9 5 Oeste 11 Oeste 0 -- -- 89
2017-08-28 04:00:00 25.1 4 Oeste 12 Sudoeste 0 -- -- 90
2017-08-28 03:00:00 25.1 8 Sudoeste 14 Sudoeste 0 -- -- 90
2017-08-28 02:00:00 25.5 5 Sudoeste 13 Sudoeste 0 -- -- 85
2017-08-28 01:00:00 25.6 0 Calma 8 Sudoeste 0 -- -- 83
2017-08-28 00:00:00 25.8 6 Sudoeste 13 Sudoeste 0 -- -- 82
2017-08-27 23:00:00 25.8 10 Sudoeste 19 Sudoeste 0 -- -- 84
2017-08-27 22:00:00 25.7 17 Sur 22 Sur 0 -- -- 86
2017-08-27 21:00:00 25.9 17 Sur 31 Norte 0 -- -- 84
2017-08-27 20:00:00 26 12 Norte 22 Nordeste 0 -- -- 81
2017-08-27 19:00:00 26.3 8 Sur 12 Sur 0 -- -- 80
2017-08-27 18:00:00 25.9 7 Sur 15 Sudeste 0 -- -- 79
2017-08-27 17:00:00 27 12 Sudeste 21 Este 0 -- -- 76
2017-08-27 16:00:00 27.7 16 Este 22 Este 0 -- -- 72
2017-08-27 15:00:00 27.8 14 Este 19 Este 0 -- -- 71
2017-08-27 14:00:00 27.5 12 Este 20 Este 0 -- -- 74
2017-08-27 13:00:00 26.3 17 Este 22 Este 0 -- -- 79
2017-08-27 12:00:00 26.5 17 Este 24 Este 0 -- -- 79
2017-08-27 11:00:00 26.1 16 Este 22 Este 0 -- -- 77
2017-08-27 10:00:00 25.6 18 Este 23 Este 0 -- -- 81
2017-08-27 09:00:00 25.5 7 Noroeste 13 Noroeste 0 -- -- 79
2017-08-27 08:00:00 24.4 6 Noroeste 11 Norte 0 -- -- 85
2017-08-27 07:00:00 24.2 4 Norte 14 Norte 0 -- -- 85
2017-08-27 06:00:00 24.1 8 Norte 13 Norte 0 -- -- 86
2017-08-27 05:00:00 25.2 4 Norte 9 Este 0 -- -- 87
2017-08-27 04:00:00 25.3 5 Este 9 Sudeste 0 -- -- 87
2017-08-27 03:00:00 25.3 3 Sur 8 Este 0 -- -- 86
2017-08-27 02:00:00 25.2 3 Sur 8 Sudeste 0 -- -- 86
2017-08-27 01:00:00 25.4 6 Sudeste 12 Este 0 -- -- 85
2017-08-27 00:00:00 25.6 7 Este 10 Este 0 -- -- 84
2017-08-26 23:00:00 25.5 4 Este -- -- -- -- -- 84
2017-08-26 22:00:00 25.6 2 Este 13 Este 0 -- -- 82
2017-08-26 21:00:00 25.8 6 Sudeste 16 Este 0 -- -- 82
2017-08-26 20:00:00 25.9 12 Este 20 Este 0 -- -- 82
2017-08-26 19:00:00 27.5 9 Sudeste 15 Este 0 -- -- 73
2017-08-26 18:00:00 27.9 10 Sudeste 16 Este 0 -- -- 73
2017-08-26 17:00:00 28.2 12 Este 19 Sudeste 0 -- -- 70
2017-08-26 16:00:00 28.4 14 Este 19 Sudeste 0 -- -- 70
2017-08-26 15:00:00 28.2 15 Sudeste 19 Este 0 -- -- 71
2017-08-26 14:00:00 28.2 17 Sudeste 21 Sudeste 0 -- -- 72
2017-08-26 13:00:00 28.4 16 Sudeste 21 Este 0 -- -- 72
2017-08-26 12:00:00 27.9 13 Este 18 Este 0 -- -- 76
2017-08-26 11:00:00 27.1 9 Nordeste 12 Nordeste 0 -- -- 73
2017-08-26 10:00:00 26.9 8 Nordeste 14 Norte 0 -- -- 71
2017-08-26 09:00:00 25.4 9 Norte 17 Norte 0 -- -- 71
2017-08-26 08:00:00 23.9 8 Norte 15 Norte 0 -- -- 76
2017-08-26 07:00:00 23.9 7 Nordeste 13 Nordeste 0 -- -- 82
2017-08-26 06:00:00 23.9 7 Nordeste 14 Nordeste 0 -- -- 86
2017-08-26 05:00:00 24.2 6 Nordeste 12 Nordeste 0 -- -- 85
2017-08-26 04:00:00 24.6 5 Nordeste 10 Nordeste 0 -- -- 84
2017-08-26 03:00:00 24.6 7 Nordeste 10 Nordeste 0 -- -- 85
2017-08-26 02:00:00 24.8 5 Nordeste 14 Nordeste 0 -- -- 86
2017-08-26 01:00:00 25.1 8 Este 11 Este 0 -- -- 86
2017-08-26 00:00:00 25.2 5 Sudeste 8 Este 0 -- -- 84
2017-08-25 23:00:00 25.4 5 Este 9 Este 0 -- -- 84
2017-08-25 22:00:00 25.5 8 Sudeste 15 Este 0 -- -- 83
2017-08-25 21:00:00 25.8 15 Este 21 Este 0 -- -- 82
2017-08-25 20:00:00 26.2 17 Este 23 Este 0 -- -- 80
2017-08-25 19:00:00 27.4 14 Sudeste 17 Sudeste 0 -- -- 73
2017-08-25 18:00:00 28 11 Sur 17 Sur 0 -- -- 72
2017-08-25 17:00:00 27.9 10 Sur 15 Sudeste 0 -- -- 68
2017-08-25 16:00:00 28.8 10 Sudeste 18 Sudeste 0 -- -- 68
2017-08-25 15:00:00 29 12 Noroeste 21 Norte 0 -- -- 68
2017-08-25 14:00:00 28.5 12 Norte 15 Norte 0 -- -- 74
2017-08-25 13:00:00 27.6 12 Norte 15 Norte 0 -- -- 76
2017-08-25 12:00:00 27.8 10 Norte 13 Norte 0 -- -- 72
2017-08-25 11:00:00 27.1 8 Norte 10 Norte 0 -- -- 72
2017-08-25 10:00:00 26.8 4 Noroeste 12 Norte 0 -- -- 68
2017-08-25 09:00:00 24.4 8 Norte 15 Norte 0 -- -- 66
2017-08-25 08:00:00 23 9 Norte 14 Norte 0 -- -- 74
2017-08-25 07:00:00 22.6 9 Norte 13 Norte 0 -- -- 77
2017-08-25 06:00:00 22.9 10 Norte 13 Norte 0 -- -- 78
2017-08-25 05:00:00 23.1 7 Norte 11 Norte 0 -- -- 81
2017-08-25 04:00:00 23.7 7 Norte 9 Norte 0 -- -- 82
2017-08-25 03:00:00 24.1 5 Norte 9 Norte 0 -- -- 78
2017-08-25 02:00:00 24.4 0 Calma 4 Oeste 0 -- -- 86
2017-08-25 01:00:00 25 2 Oeste 6 Oeste 0 -- -- 84
2017-08-25 00:00:00 24.8 5 Sur 9 Sudoeste 0 -- -- 86
2017-08-24 23:00:00 25 8 Sur 11 Sur 0 -- -- 85
2017-08-24 22:00:00 25 8 Sur 12 Sur 0 -- -- 85
2017-08-24 21:00:00 25.2 11 Sur 17 Sur 0 -- -- 83
2017-08-24 20:00:00 25.6 14 Sur 21 Sur 0 -- -- 83
2017-08-24 19:00:00 26 18 Sur 24 Sur 0 -- -- 81
2017-08-24 18:00:00 26.2 20 Sur 24 Sur 0 -- -- 81
2017-08-24 17:00:00 26.3 21 Sur 31 Sur 0 -- -- 81
2017-08-24 16:00:00 25.9 26 Sur 31 Sur 0 -- -- 81
2017-08-24 15:00:00 26.1 25 Sur 34 Sur 0 -- -- 80
2017-08-24 14:00:00 26.6 27 Sur 33 Sur 0 -- -- 73
2017-08-24 13:00:00 27.9 18 Sur 26 Sur 0 -- -- 63
2017-08-24 12:00:00 27.9 15 Sudoeste 30 Sur 0 -- -- 61
2017-08-24 11:00:00 27.7 11 Sur 20 Oeste 0 -- -- 62
2017-08-24 10:00:00 25.8 15 Sudoeste 22 Sur 0 -- -- 80
2017-08-24 09:00:00 25.4 9 Sudoeste 18 Oeste 0 -- -- 79
2017-08-24 08:00:00 24.4 9 Oeste 13 Oeste 0 -- -- 81
2017-08-24 07:00:00 24.6 6 Oeste 14 Sudoeste 0 -- -- 65
2017-08-24 06:00:00 24.9 5 Sudoeste 15 Oeste 0 -- -- 62
2017-08-24 05:00:00 25 4 Sudoeste 13 Oeste 0 -- -- 66
2017-08-24 04:00:00 25 8 Oeste 13 Oeste 0 -- -- 70
2017-08-24 03:00:00 24.9 4 Sudoeste 18 Oeste 0 -- -- 68
2017-08-24 02:00:00 25 8 Sudoeste 18 Sudoeste 0 -- -- 66
2017-08-24 01:00:00 25.3 12 Sudoeste 21 Oeste 0 -- -- 65
2017-08-24 00:00:00 25.4 5 Sudoeste 12 Sudoeste 0 -- -- 72
2017-08-23 23:00:00 25.5 6 Sudoeste 21 Sudoeste 0 -- -- 73
2017-08-23 22:00:00 26.1 10 Sudoeste 15 Sudoeste 0 -- -- 68
2017-08-23 21:00:00 26.1 11 Sur 22 Sudoeste 0 -- -- 70
2017-08-23 20:00:00 27.1 8 Sudoeste 24 Sudoeste 0 -- -- 63
2017-08-23 19:00:00 28.2 13 Sudoeste 32 Sudoeste 0 -- -- 55
2017-08-23 18:00:00 27.8 17 Sudoeste 36 Sudoeste 0 -- -- 59
2017-08-23 17:00:00 27.6 23 Sur 32 Sudoeste 0 -- -- 64
2017-08-23 16:00:00 26.6 24 Sur 31 Sur 0 -- -- 72
2017-08-23 15:00:00 26.4 21 Sur 26 Sur 0 -- -- 74
2017-08-23 14:00:00 26.2 19 Sur 23 Sur 0 -- -- 76
2017-08-23 13:00:00 26.5 19 Sur 23 Sur 0 -- -- 73
2017-08-23 12:00:00 25.8 14 Sur 19 Sur 0 -- -- 76
2017-08-23 11:00:00 27 9 Sudeste 13 Sudoeste 0 -- -- 70
2017-08-23 10:00:00 26 7 Sudoeste 11 Sudoeste 0 -- -- 69
2017-08-23 09:00:00 24.8 6 Oeste 10 Oeste 0 -- -- 71
2017-08-23 08:00:00 24 5 Sudoeste 8 Sudoeste 0 -- -- 78
2017-08-23 07:00:00 23.8 6 Sudoeste 12 Sudoeste 0 -- -- 81
2017-08-23 06:00:00 23.8 6 Sudoeste 16 Oeste 0 -- -- 79
2017-08-23 05:00:00 23.8 10 Oeste 21 Sudoeste 0 -- -- 78
2017-08-23 04:00:00 24 10 Sudoeste 16 Sudoeste 0 -- -- 79
2017-08-23 03:00:00 24.2 5 Sudoeste 13 Sudoeste 0 -- -- 73
2017-08-23 02:00:00 24.5 7 Sudoeste 10 Sudoeste 0 -- -- 74
2017-08-23 01:00:00 24.5 6 Sudoeste 13 Sudoeste 0 -- -- 79
2017-08-23 00:00:00 24.6 8 Sudoeste 17 Sudoeste 0 -- -- 81
2017-08-22 23:00:00 25 8 Sudoeste 18 Sudoeste 0 -- -- 78
2017-08-22 22:00:00 25.1 9 Sudoeste 19 Sudoeste 0 -- -- 75
2017-08-22 21:00:00 25.7 9 Sudoeste 26 Oeste 0 -- -- 71
2017-08-22 20:00:00 26.9 13 Sudoeste 30 Sudoeste 0 -- -- 64
2017-08-22 19:00:00 26.8 20 Sudoeste 33 Sudoeste 0 -- -- 67
2017-08-22 18:00:00 26.9 21 Sudoeste 39 Sudoeste 0 -- -- 70
2017-08-22 17:00:00 26.4 27 Sur 38 Sur 0 -- -- 75
2017-08-22 16:00:00 26.4 29 Sur 37 Sur 0 -- -- 75
2017-08-22 15:00:00 26.5 27 Sur 38 Sur 0 -- -- 75
2017-08-22 14:00:00 26.3 28 Sur 36 Sur 0 -- -- 77
2017-08-22 13:00:00 26 29 Sur 35 Sur 0 -- -- 77
2017-08-22 12:00:00 25.7 26 Sur 33 Sur 0 -- -- 77
2017-08-22 11:00:00 25.7 24 Sur 30 Sur 0 -- -- 77
2017-08-22 10:00:00 26 12 Sur 18 Sur 0 -- -- 68
2017-08-22 09:00:00 25.5 4 Nordeste 7 Nordeste 0 -- -- 74
2017-08-22 08:00:00 24.2 3 Norte 8 Norte 0 -- -- 79
2017-08-22 07:00:00 22.9 3 Norte 6 Norte 0 -- -- 83
2017-08-22 06:00:00 23.3 0 Calma -- -- 0 -- -- 84
2017-08-22 05:00:00 23.5 0 Calma 4 Norte 0 -- -- 82
2017-08-22 04:00:00 23.9 0 Calma 8 Oeste 0 -- -- 79
2017-08-22 03:00:00 24.3 7 Oeste 12 Oeste 0 -- -- 79
2017-08-22 02:00:00 24.2 0 Calma 6 Oeste 0 -- -- 74
2017-08-22 01:00:00 24.4 3 Sudoeste 8 Sur 0 -- -- 77
2017-08-22 00:00:00 24.3 5 Sur 8 Sur 0 -- -- 76